Time;durP1;ratioP1;P1;durP2;ratioP2;P2;SDS_P1;SDS_P2;PMS_P1;PMS_P2;Temp;Humidity;BMP_temperature;BMP_pressure;BME280_temperature;BME280_humidity;BME280_pressure;Samples;Min_cycle;Max_cycle;Signal;HPM_P1;HPM_P2
2023/09/03 00:03:48;;;;;;;14.55;8.60;;;13.70;99.90;;;;;;10491328;28;20237;-89
2023/09/03 00:08:51;;;;;;;13.38;8.93;;;13.70;99.90;;;;;;10487265;28;20343;-88
2023/09/03 00:13:54;;;;;;;19.85;10.00;;;13.60;99.90;;;;;;10449237;28;20238;-89
2023/09/03 00:18:56;;;;;;;18.20;11.02;;;13.70;99.90;;;;;;10448021;28;20792;-88
2023/09/03 00:23:59;;;;;;;12.13;10.23;;;13.70;99.90;;;;;;10448910;28;20243;-90
2023/09/03 00:29:01;;;;;;;13.38;10.20;;;13.60;99.90;;;;;;10440557;28;20257;-89
2023/09/03 00:34:04;;;;;;;12.10;9.35;;;13.60;99.90;;;;;;10407139;28;20235;-88
2023/09/03 00:39:07;;;;;;;12.07;10.63;;;13.70;99.90;;;;;;10413240;28;20275;-88
2023/09/03 00:44:09;;;;;;;11.65;7.60;;;13.50;99.90;;;;;;10414839;28;20373;-88
2023/09/03 00:49:14;;;;;;;14.60;9.50;;;13.50;99.90;;;;;;10439830;28;20651;-89
2023/09/03 00:54:17;;;;;;;12.98;8.50;;;13.40;99.90;;;;;;10415867;28;20259;-89
2023/09/03 00:59:22;;;;;;;11.77;8.15;;;13.40;99.90;;;;;;10414516;28;20267;-89
2023/09/03 01:04:24;;;;;;;13.77;9.00;;;13.40;99.90;;;;;;10414064;28;20265;-89
2023/09/03 01:09:27;;;;;;;13.52;8.27;;;13.30;99.90;;;;;;10426893;28;20340;-89
2023/09/03 01:14:50;;;;;;;6.22;4.40;;;13.30;99.90;;;;;;10455267;28;20276;-88
2023/09/03 01:20:07;;;;;;;8.15;7.38;;;13.60;99.90;;;;;;10480379;28;20254;-88
2023/09/03 01:25:35;;;;;;;12.50;7.95;;;13.50;99.90;;;;;;10454847;28;20234;-88
2023/09/03 01:30:38;;;;;;;11.75;7.97;;;13.50;99.90;;;;;;10453723;28;20252;-87
2023/09/03 01:35:41;;;;;;;12.73;8.00;;;13.50;99.90;;;;;;10462048;28;20623;-88
2023/09/03 01:40:48;;;;;;;12.57;8.43;;;13.60;99.90;;;;;;10455037;28;20242;-87
2023/09/03 01:45:57;;;;;;;11.55;7.80;;;13.50;99.90;;;;;;10455451;28;20231;-88
2023/09/03 01:51:18;;;;;;;11.82;9.18;;;13.40;99.90;;;;;;10436630;28;20238;-87
2023/09/03 01:56:22;;;;;;;19.33;9.38;;;13.60;99.90;;;;;;10480803;28;20234;-87
2023/09/03 02:01:30;;;;;;;10.50;8.02;;;13.30;99.90;;;;;;10470962;28;20313;-87
2023/09/03 02:06:33;;;;;;;9.20;7.43;;;13.30;99.90;;;;;;10454383;28;20234;-88
2023/09/03 02:11:35;;;;;;;12.88;8.13;;;13.20;99.90;;;;;;10453836;28;21057;-88
2023/09/03 02:16:38;;;;;;;10.88;7.55;;;13.20;99.90;;;;;;10415680;28;20239;-88
2023/09/03 02:21:40;;;;;;;12.38;8.85;;;13.10;99.90;;;;;;10410956;28;20345;-87
2023/09/03 02:26:44;;;;;;;9.98;7.47;;;13.10;99.90;;;;;;10412586;28;20235;-87
2023/09/03 02:31:48;;;;;;;15.68;8.60;;;13.00;99.90;;;;;;10426916;28;20258;-88
2023/09/03 02:36:50;;;;;;;9.27;8.30;;;13.10;99.90;;;;;;10412334;28;20219;-87
2023/09/03 02:41:53;;;;;;;9.20;7.63;;;13.00;99.90;;;;;;10411664;28;20297;-88
2023/09/03 02:46:55;;;;;;;12.43;9.82;;;12.90;99.90;;;;;;10447206;28;20235;-87
2023/09/03 02:51:58;;;;;;;11.43;8.48;;;;;;;;;;10441738;28;20243;-87
2023/09/03 02:57:01;;;;;;;8.15;7.35;;;12.90;99.90;;;;;;10411076;28;20301;-87
2023/09/03 03:02:03;;;;;;;10.93;8.35;;;12.80;99.90;;;;;;10431965;28;20727;-88
2023/09/03 03:07:06;;;;;;;12.73;9.07;;;12.80;99.90;;;;;;10450410;28;20289;-88
2023/09/03 03:12:08;;;;;;;9.85;8.80;;;12.70;99.90;;;;;;10451988;28;20242;-87
2023/09/03 03:17:11;;;;;;;11.38;8.48;;;12.70;99.90;;;;;;10450372;28;20238;-87
2023/09/03 03:22:14;;;;;;;10.70;8.50;;;12.70;99.90;;;;;;10450272;28;20258;-88
2023/09/03 03:27:17;;;;;;;10.70;8.75;;;12.50;99.90;;;;;;10449534;28;20274;-88
2023/09/03 03:32:20;;;;;;;8.52;6.60;;;12.50;99.90;;;;;;10449065;28;20285;-88
2023/09/03 03:37:27;;;;;;;12.77;8.43;;;12.50;99.90;;;;;;10433688;28;20299;-88
2023/09/03 03:42:29;;;;;;;9.57;8.02;;;12.50;99.90;;;;;;10450592;28;20282;-87
2023/09/03 03:47:32;;;;;;;13.98;9.05;;;12.50;99.90;;;;;;10491754;28;20230;-87
2023/09/03 03:52:35;;;;;;;16.15;8.77;;;12.40;99.90;;;;;;10490344;28;20214;-87
2023/09/03 03:57:38;;;;;;;11.30;9.35;;;12.40;99.90;;;;;;10489824;28;20278;-87
2023/09/03 04:02:40;;;;;;;11.15;8.40;;;12.40;99.90;;;;;;10482844;28;20309;-87
2023/09/03 04:07:43;;;;;;;12.05;8.40;;;12.50;99.90;;;;;;10449775;28;20266;-88
2023/09/03 04:12:46;;;;;;;16.00;8.77;;;12.60;99.90;;;;;;10449176;28;20261;-88
2023/09/03 04:17:48;;;;;;;8.95;8.00;;;12.60;99.90;;;;;;10448234;28;20207;-88
2023/09/03 04:22:53;;;;;;;10.75;8.38;;;12.60;99.90;;;;;;10462013;28;20269;-87
2023/09/03 04:27:58;;;;;;;9.15;7.32;;;12.70;99.90;;;;;;10452373;28;20211;-87
2023/09/03 04:33:00;;;;;;;12.32;8.95;;;12.80;99.90;;;;;;10448071;28;20257;-87
2023/09/03 04:38:04;;;;;;;10.90;7.80;;;12.90;99.90;;;;;;10449028;28;20292;-87
2023/09/03 04:43:08;;;;;;;10.25;7.80;;;12.90;99.90;;;;;;10438961;28;20258;-88
2023/09/03 04:48:11;;;;;;;5.93;5.18;;;13.30;99.90;;;;;;10472274;28;20303;-87
2023/09/03 04:53:14;;;;;;;12.20;9.93;;;13.50;99.90;;;;;;10474970;28;20235;-88
2023/09/03 04:58:19;;;;;;;10.63;8.65;;;13.70;99.90;;;;;;10447301;28;20206;-87
2023/09/03 05:03:22;;;;;;;10.88;8.50;;;13.70;99.90;;;;;;10411094;28;20332;-87
2023/09/03 05:08:25;;;;;;;8.68;7.75;;;13.60;99.90;;;;;;10406663;28;20235;-87
2023/09/03 05:13:29;;;;;;;7.90;7.20;;;13.60;99.90;;;;;;10407250;28;20622;-88
2023/09/03 05:18:35;;;;;;;7.38;6.68;;;13.60;99.90;;;;;;10407583;28;20239;-88
2023/09/03 05:23:38;;;;;;;13.52;8.77;;;14.20;99.90;;;;;;10424574;28;20317;-88
2023/09/03 05:28:41;;;;;;;9.25;7.70;;;14.20;99.90;;;;;;10412895;28;20675;-87
2023/09/03 05:33:46;;;;;;;10.65;7.32;;;14.20;99.90;;;;;;10412791;28;20297;-87
2023/09/03 05:38:48;;;;;;;10.20;8.15;;;14.30;99.90;;;;;;10429612;28;20285;-88
2023/09/03 05:43:53;;;;;;;5.90;5.30;;;14.20;99.90;;;;;;10438075;28;20258;-87
2023/09/03 05:48:56;;;;;;;6.57;5.88;;;14.50;99.90;;;;;;10453958;28;20701;-87
2023/09/03 05:53:59;;;;;;;7.25;5.78;;;14.80;99.90;;;;;;10453862;28;20292;-87
2023/09/03 05:59:08;;;;;;;4.68;4.28;;;15.40;99.90;;;;;;10436020;28;20269;-87
2023/09/03 06:04:15;;;;;;;7.05;6.38;;;16.00;99.90;;;;;;10466975;28;20254;-87
2023/09/03 06:09:18;;;;;;;7.43;5.50;;;16.40;99.90;;;;;;10458623;28;20280;-87
2023/09/03 06:14:21;;;;;;;8.27;6.38;;;16.70;99.90;;;;;;10452769;28;20211;-87
2023/09/03 06:19:24;;;;;;;9.52;8.35;;;17.00;99.90;;;;;;10451050;28;20614;-88
2023/09/03 06:24:26;;;;;;;6.43;5.82;;;17.20;99.90;;;;;;10452322;28;20698;-87
2023/09/03 06:29:32;;;;;;;3.78;3.47;;;17.30;99.90;;;;;;10452877;28;20230;-87
2023/09/03 06:34:34;;;;;;;6.57;5.95;;;17.50;99.90;;;;;;10452299;28;20226;-87
2023/09/03 06:39:37;;;;;;;4.35;3.95;;;17.70;99.90;;;;;;10451928;28;20632;-87
2023/09/03 06:44:40;;;;;;;8.00;7.30;;;17.70;99.90;;;;;;10450876;28;20250;-88
2023/09/03 06:49:42;;;;;;;6.80;5.97;;;17.80;99.90;;;;;;10449132;28;20227;-87
2023/09/03 06:54:45;;;;;;;5.63;5.10;;;17.80;99.90;;;;;;10451926;28;20253;-87
2023/09/03 06:59:48;;;;;;;9.52;7.60;;;17.90;99.90;;;;;;10449644;28;20651;-87
2023/09/03 07:04:51;;;;;;;7.95;5.28;;;18.30;99.90;;;;;;10449718;28;20349;-87
2023/09/03 07:09:54;;;;;;;3.78;3.45;;;18.50;99.90;;;;;;10452285;28;20262;-86
2023/09/03 07:14:57;;;;;;;6.03;4.97;;;18.80;99.90;;;;;;10451541;28;20632;-87
2023/09/03 07:20:00;;;;;;;4.35;4.00;;;19.00;99.90;;;;;;10451297;28;20238;-86
2023/09/03 07:25:03;;;;;;;5.22;4.13;;;19.20;99.10;;;;;;10485154;28;20695;-87
2023/09/03 07:30:09;;;;;;;4.85;4.25;;;19.40;98.70;;;;;;10459202;28;20296;-87
2023/09/03 07:35:12;;;;;;;4.40;3.92;;;19.60;98.60;;;;;;10450041;28;20230;-87
2023/09/03 07:40:16;;;;;;;4.38;3.35;;;19.80;97.80;;;;;;10450470;28;20226;-87
2023/09/03 07:45:19;;;;;;;4.60;3.38;;;19.90;97.10;;;;;;10417075;28;20243;-87
2023/09/03 07:50:22;;;;;;;3.53;3.10;;;20.20;97.00;;;;;;10423530;28;20230;-87
2023/09/03 07:55:24;;;;;;;4.15;3.53;;;20.50;95.90;;;;;;10444586;28;20662;-86
2023/09/03 08:00:27;;;;;;;3.10;2.80;;;20.60;94.20;;;;;;10429238;28;20227;-87
2023/09/03 08:05:29;;;;;;;4.45;2.88;;;20.80;93.20;;;;;;10484535;28;20242;-87
2023/09/03 08:10:32;;;;;;;3.63;2.95;;;21.00;92.20;;;;;;10489711;28;20315;-86
2023/09/03 08:15:35;;;;;;;3.83;2.40;;;21.00;91.00;;;;;;10452254;28;20612;-86
2023/09/03 08:20:48;;;;;;;4.75;3.28;;;20.90;90.50;;;;;;10445479;28;20250;-86
2023/09/03 08:25:51;;;;;;;2.90;2.20;;;21.20;90.00;;;;;;10448588;28;20626;-87
2023/09/03 08:30:53;;;;;;;2.42;2.20;;;21.50;91.20;;;;;;10449628;28;20678;-86
2023/09/03 08:35:56;;;;;;;2.95;2.63;;;21.80;90.60;;;;;;10426881;28;20231;-88
2023/09/03 08:40:58;;;;;;;4.68;2.53;;;21.90;86.30;;;;;;10407723;28;20251;-86
2023/09/03 08:46:05;;;;;;;3.13;2.53;;;22.00;88.80;;;;;;10407822;28;20223;-87
2023/09/03 08:51:10;;;;;;;2.10;1.90;;;22.10;87.10;;;;;;10422813;28;20300;-87
2023/09/03 08:56:12;;;;;;;2.90;2.30;;;22.10;88.80;;;;;;10476463;28;20237;-87
2023/09/03 09:01:16;;;;;;;2.75;2.42;;;22.00;85.40;;;;;;10453731;28;20689;-87
2023/09/03 09:06:20;;;;;;;2.40;2.20;;;22.00;85.20;;;;;;10456327;28;20311;-86
2023/09/03 09:11:26;;;;;;;2.67;2.42;;;22.20;87.50;;;;;;10456173;28;20391;-85
2023/09/03 09:16:29;;;;;;;2.72;2.45;;;22.50;87.10;;;;;;10462541;28;20238;-86
2023/09/03 09:21:31;;;;;;;2.58;2.10;;;22.40;85.70;;;;;;10455622;28;20695;-85
2023/09/03 09:26:34;;;;;;;2.47;1.95;;;22.40;84.90;;;;;;10453712;28;20207;-85
2023/09/03 09:31:37;;;;;;;2.55;2.20;;;22.50;83.80;;;;;;10424314;28;20234;-85
2023/09/03 09:36:52;;;;;;;2.58;2.38;;;22.60;85.90;;;;;;10434997;28;20227;-87
2023/09/03 09:42:12;;;;;;;2.28;2.08;;;22.60;84.00;;;;;;10448326;28;20305;-87
2023/09/03 09:47:20;;;;;;;2.72;2.53;;;22.60;83.90;;;;;;10446316;28;20253;-86
2023/09/03 09:52:32;;;;;;;2.95;2.33;;;22.80;85.10;;;;;;10416357;28;20985;-86
2023/09/03 09:57:35;;;;;;;2.60;2.40;;;22.80;87.80;;;;;;10457198;28;20228;-85
2023/09/03 10:02:38;;;;;;;2.78;2.58;;;22.90;86.20;;;;;;10492452;28;20262;-86
2023/09/03 10:07:41;;;;;;;5.28;2.65;;;22.90;87.40;;;;;;10483878;28;20323;-85
2023/09/03 10:12:43;;;;;;;2.03;1.67;;;23.20;82.00;;;;;;10493010;28;20241;-86
2023/09/03 10:17:51;;;;;;;2.20;2.00;;;23.20;80.00;;;;;;10453164;28;20231;-86
2023/09/03 10:22:56;;;;;;;2.58;2.38;;;23.10;80.70;;;;;;10440652;28;20254;-85
2023/09/03 10:28:06;;;;;;;2.58;2.38;;;22.80;80.30;;;;;;10467010;28;20611;-86
2023/09/03 10:33:10;;;;;;;4.07;2.08;;;22.80;81.20;;;;;;10456293;28;20222;-85
2023/09/03 10:38:31;;;;;;;3.70;3.28;;;22.60;77.50;;;;;;10457667;28;20272;-85
2023/09/03 10:43:33;;;;;;;2.40;2.20;;;22.40;86.20;;;;;;10486265;28;20261;-85
2023/09/03 10:48:37;;;;;;;2.78;1.95;;;22.30;81.10;;;;;;10479647;28;20235;-85
2023/09/03 10:53:40;;;;;;;2.10;1.90;;;22.10;85.50;;;;;;10450586;28;20227;-86
2023/09/03 10:58:56;;;;;;;2.55;2.13;;;22.00;82.60;;;;;;10467567;28;20230;-85
2023/09/03 11:04:03;;;;;;;2.63;2.38;;;22.00;84.70;;;;;;10482824;28;20701;-85
2023/09/03 11:09:10;;;;;;;2.28;1.92;;;22.10;85.30;;;;;;10463113;28;20312;-87
2023/09/03 11:14:13;;;;;;;2.75;2.38;;;22.10;86.70;;;;;;10440401;28;20289;-87
2023/09/03 11:19:16;;;;;;;2.22;2.03;;;22.30;87.10;;;;;;10446785;28;20230;-87
2023/09/03 11:24:18;;;;;;;2.67;2.47;;;22.40;84.60;;;;;;10431702;28;20295;-86
2023/09/03 11:29:23;;;;;;;2.40;2.20;;;22.50;81.60;;;;;;10464216;28;20230;-86
2023/09/03 11:34:29;;;;;;;5.13;2.10;;;22.40;79.50;;;;;;10449359;28;20760;-86
2023/09/03 11:39:33;;;;;;;1.60;1.42;;;22.70;88.00;;;;;;10449262;28;20310;-88
2023/09/03 11:44:36;;;;;;;2.13;1.90;;;22.60;75.00;;;;;;10482458;28;20755;-87
2023/09/03 11:49:38;;;;;;;3.05;2.10;;;22.60;82.30;;;;;;10473351;28;20687;-87
2023/09/03 11:54:42;;;;;;;2.25;1.90;;;22.50;84.60;;;;;;10464055;28;20791;-87
2023/09/03 11:59:45;;;;;;;2.50;2.30;;;22.80;84.00;;;;;;10417084;28;20292;-87
2023/09/03 12:04:48;;;;;;;2.60;2.33;;;22.90;85.00;;;;;;10482799;28;20794;-87
2023/09/03 12:09:51;;;;;;;2.35;2.00;;;22.80;77.30;;;;;;10461528;28;20701;-87
2023/09/03 12:14:54;;;;;;;2.28;2.08;;;22.80;77.70;;;;;;10430752;28;20247;-86
2023/09/03 12:19:58;;;;;;;2.42;2.22;;;23.00;71.90;;;;;;10435326;28;20707;-86
2023/09/03 12:25:06;;;;;;;2.97;1.88;;;23.00;76.80;;;;;;10486664;28;20262;-86
2023/09/03 12:30:09;;;;;;;3.00;2.33;;;22.80;72.90;;;;;;10484899;28;20276;-86
2023/09/03 12:35:16;;;;;;;2.55;2.35;;;22.80;75.90;;;;;;10448344;28;20307;-86
2023/09/03 12:40:19;;;;;;;5.47;2.22;;;22.60;79.10;;;;;;10451373;28;20235;-86
2023/09/03 12:45:21;;;;;;;2.67;2.40;;;22.70;79.00;;;;;;10482290;28;20250;-87
2023/09/03 12:50:24;;;;;;;3.42;2.47;;;22.70;78.10;;;;;;10432776;28;20226;-87
2023/09/03 12:55:26;;;;;;;2.40;2.20;;;22.80;74.80;;;;;;10443331;28;20234;-85
2023/09/03 13:00:29;;;;;;;2.10;1.90;;;22.80;76.10;;;;;;10424533;28;20320;-86
2023/09/03 13:05:31;;;;;;;2.05;1.90;;;22.80;77.50;;;;;;10438556;28;20246;-86
2023/09/03 13:10:34;;;;;;;2.03;1.83;;;22.60;74.50;;;;;;10420945;28;20262;-86
2023/09/03 13:15:36;;;;;;;3.08;2.15;;;22.70;79.00;;;;;;10446059;28;20246;-89
2023/09/03 13:20:41;;;;;;;2.25;2.05;;;22.60;78.70;;;;;;10442555;28;20308;-89
2023/09/03 13:25:44;;;;;;;3.40;2.60;;;22.80;77.80;;;;;;10464061;28;20700;-88
2023/09/03 13:30:46;;;;;;;2.15;1.80;;;22.90;80.40;;;;;;10453607;28;20655;-88
2023/09/03 13:36:10;;;;;;;2.17;1.95;;;22.90;79.80;;;;;;10458840;28;20671;-88
2023/09/03 13:41:14;;;;;;;2.10;1.88;;;22.80;80.10;;;;;;10450265;28;20284;-87
2023/09/03 13:46:16;;;;;;;2.38;2.13;;;22.90;77.10;;;;;;10456875;28;20250;-88
2023/09/03 13:51:20;;;;;;;6.15;2.67;;;22.80;78.40;;;;;;10453088;28;20234;-88
2023/09/03 13:56:23;;;;;;;3.70;2.50;;;22.40;80.70;;;;;;10453076;28;20250;-87
2023/09/03 14:01:26;;;;;;;4.03;2.60;;;22.20;79.70;;;;;;10445677;28;20758;-88
2023/09/03 14:06:28;;;;;;;4.70;2.78;;;22.10;79.00;;;;;;10114419;28;9999778;-88
2023/09/03 14:11:31;;;;;;;3.72;2.63;;;21.80;76.30;;;;;;10464224;28;20258;-88
2023/09/03 14:16:34;;;;;;;4.90;2.67;;;21.60;81.30;;;;;;10463615;28;20284;-87
2023/09/03 14:21:36;;;;;;;3.10;2.55;;;21.30;81.60;;;;;;10491741;28;20222;-87
2023/09/03 14:26:39;;;;;;;5.50;3.20;;;21.10;82.70;;;;;;10477113;28;20254;-87
2023/09/03 14:31:45;;;;;;;3.40;2.97;;;20.90;87.90;;;;;;10447658;28;20230;-87
2023/09/03 14:36:48;;;;;;;3.92;3.00;;;20.80;88.50;;;;;;10454806;28;20296;-87
2023/09/03 14:41:51;;;;;;;3.38;2.90;;;20.20;98.50;;;;;;10450588;28;20238;-87
2023/09/03 14:46:54;;;;;;;4.97;2.75;;;20.00;92.00;;;;;;10448130;28;20776;-87
2023/09/03 14:51:56;;;;;;;2.70;2.50;;;19.70;96.70;;;;;;10427644;28;20693;-87
2023/09/03 14:56:59;;;;;;;4.63;2.95;;;19.60;96.40;;;;;;10461023;28;20746;-87
2023/09/03 15:02:02;;;;;;;5.50;3.17;;;19.70;98.40;;;;;;10448729;28;20253;-85
2023/09/03 15:07:05;;;;;;;2.88;2.55;;;19.60;94.60;;;;;;10454707;28;20234;-86
2023/09/03 15:12:07;;;;;;;3.72;2.45;;;19.80;98.90;;;;;;10438765;28;20296;-86
2023/09/03 15:17:10;;;;;;;5.57;2.70;;;20.00;99.90;;;;;;10466554;28;20283;-86
2023/09/03 15:22:13;;;;;;;4.05;2.92;;;20.10;99.80;;;;;;10429416;28;20250;-85
2023/09/03 15:27:15;;;;;;;3.60;3.28;;;19.90;97.10;;;;;;10413431;28;20663;-86
2023/09/03 15:32:18;;;;;;;4.90;3.20;;;20.00;99.90;;;;;;10452718;28;20219;-85
2023/09/03 15:37:20;;;;;;;7.13;3.42;;;19.90;99.90;;;;;;10460847;28;20614;-86
2023/09/03 15:42:23;;;;;;;3.78;2.55;;;19.80;99.50;;;;;;10489467;28;20295;-86
2023/09/03 15:47:26;;;;;;;2.50;2.30;;;19.80;99.70;;;;;;10111926;28;10000179;-86
2023/09/03 15:52:28;;;;;;;3.05;2.33;;;19.50;98.60;;;;;;10470854;28;20276;-85
2023/09/03 15:57:31;;;;;;;4.35;2.33;;;19.50;99.60;;;;;;10448396;28;20614;-85
2023/09/03 16:02:33;;;;;;;2.72;1.45;;;19.50;97.00;;;;;;10449475;28;20699;-84
2023/09/03 16:07:36;;;;;;;2.17;1.95;;;19.30;95.20;;;;;;10458417;28;20258;-86
2023/09/03 16:12:39;;;;;;;2.97;1.98;;;19.20;95.20;;;;;;10449918;28;20288;-86
2023/09/03 16:17:41;;;;;;;3.80;2.00;;;19.20;95.40;;;;;;10448189;28;20238;-85
2023/09/03 16:22:44;;;;;;;2.25;1.95;;;19.10;94.20;;;;;;10448588;28;20266;-85
2023/09/03 16:27:47;;;;;;;3.35;2.13;;;18.90;94.00;;;;;;10448111;28;20720;-86
2023/09/03 16:32:49;;;;;;;4.28;2.10;;;18.90;94.90;;;;;;10447915;28;20242;-86
2023/09/03 16:37:52;;;;;;;3.90;1.90;;;18.90;95.30;;;;;;10449471;28;20234;-87
2023/09/03 16:42:54;;;;;;;3.80;2.00;;;18.70;94.10;;;;;;10447422;28;20590;-86
2023/09/03 16:47:57;;;;;;;2.47;2.00;;;18.60;95.90;;;;;;10449403;28;20227;-87
2023/09/03 16:53:02;;;;;;;2.85;1.95;;;18.40;96.00;;;;;;10431224;28;20625;-86
2023/09/03 16:58:05;;;;;;;4.22;3.10;;;18.40;97.20;;;;;;10449075;28;20238;-86
2023/09/03 17:03:07;;;;;;;5.18;2.13;;;18.40;97.80;;;;;;10447742;28;20262;-86
2023/09/03 17:08:10;;;;;;;4.07;2.47;;;18.30;97.90;;;;;;10447408;28;20587;-86
2023/09/03 17:13:13;;;;;;;3.55;1.90;;;18.30;98.10;;;;;;10449343;28;20292;-87
2023/09/03 17:18:16;;;;;;;5.00;1.83;;;18.30;97.50;;;;;;10466628;28;20607;-87
2023/09/03 17:23:19;;;;;;;3.00;2.25;;;18.30;96.40;;;;;;10497251;28;20258;-87
2023/09/03 17:28:21;;;;;;;4.50;2.45;;;18.30;96.50;;;;;;10482184;28;20207;-88
2023/09/03 17:33:24;;;;;;;2.72;1.90;;;18.20;97.30;;;;;;10456712;28;20623;-87
2023/09/03 17:38:27;;;;;;;6.13;1.92;;;18.10;96.50;;;;;;10496688;28;20299;-88
2023/09/03 17:43:32;;;;;;;2.40;1.70;;;18.00;96.90;;;;;;10463579;28;20258;-88
2023/09/03 17:48:35;;;;;;;2.15;1.80;;;18.00;97.40;;;;;;10456912;28;20662;-86
2023/09/03 17:53:37;;;;;;;3.55;2.00;;;18.00;97.40;;;;;;10466861;28;20292;-87
2023/09/03 17:58:40;;;;;;;4.07;1.67;;;18.00;99.10;;;;;;10453106;28;20300;-88
2023/09/03 18:03:42;;;;;;;3.60;2.08;;;18.00;98.60;;;;;;10451453;28;20251;-87
2023/09/03 18:08:45;;;;;;;3.58;1.98;;;17.90;99.10;;;;;;10477332;28;20261;-87
2023/09/03 18:13:47;;;;;;;2.47;1.80;;;17.80;99.30;;;;;;10462389;28;20630;-87
2023/09/03 18:18:50;;;;;;;1.77;1.30;;;17.90;99.70;;;;;;10462154;28;20249;-88
2023/09/03 18:23:53;;;;;;;3.65;1.98;;;17.90;99.50;;;;;;10450937;28;20289;-88
2023/09/03 18:28:57;;;;;;;4.70;1.90;;;17.80;98.90;;;;;;10452617;28;20239;-88
2023/09/03 18:34:00;;;;;;;3.53;1.60;;;17.80;98.90;;;;;;10454501;28;20677;-85
2023/09/03 18:39:03;;;;;;;1.67;1.52;;;17.80;99.90;;;;;;10466767;28;20311;-85
2023/09/03 18:44:06;;;;;;;1.70;1.58;;;17.80;99.90;;;;;;10458410;28;20701;-85
2023/09/03 18:49:09;;;;;;;3.90;2.58;;;17.80;99.90;;;;;;10451274;28;20257;-85
2023/09/03 18:54:11;;;;;;;4.93;2.30;;;17.20;99.90;;;;;;10450645;28;20261;-85
2023/09/03 18:59:16;;;;;;;5.10;2.65;;;16.50;99.90;;;;;;10447819;28;20234;-85
2023/09/03 19:04:19;;;;;;;5.40;2.95;;;16.10;99.90;;;;;;10451241;28;20250;-86
2023/09/03 19:09:22;;;;;;;3.28;2.30;;;15.80;99.90;;;;;;10447886;28;20316;-86
2023/09/03 19:14:24;;;;;;;4.85;2.20;;;15.70;99.90;;;;;;10448825;28;20223;-86
2023/09/03 19:19:27;;;;;;;3.08;1.92;;;15.90;99.90;;;;;;10453670;28;20285;-86
2023/09/03 19:24:29;;;;;;;5.07;2.33;;;16.10;99.90;;;;;;10439155;28;20300;-86
2023/09/03 19:29:32;;;;;;;4.10;2.10;;;16.20;99.90;;;;;;10440558;28;20671;-86
2023/09/03 19:34:34;;;;;;;3.47;2.20;;;16.40;99.90;;;;;;10466868;28;20265;-86
2023/09/03 19:39:36;;;;;;;5.25;2.80;;;16.40;99.90;;;;;;10438775;28;20289;-86
2023/09/03 19:44:39;;;;;;;2.90;1.75;;;16.40;99.90;;;;;;10420982;28;20346;-85
2023/09/03 19:49:41;;;;;;;2.78;2.03;;;16.50;99.90;;;;;;10479891;28;20271;-85
2023/09/03 19:54:44;;;;;;;3.63;2.05;;;16.60;99.90;;;;;;10443842;28;20230;-86
2023/09/03 19:59:47;;;;;;;3.65;1.95;;;16.60;99.90;;;;;;10448254;28;20292;-85
2023/09/03 20:04:50;;;;;;;5.35;2.30;;;16.60;99.90;;;;;;10471994;28;20262;-85
2023/09/03 20:09:52;;;;;;;3.08;1.77;;;16.60;99.90;;;;;;10465594;28;20262;-86
2023/09/03 20:14:55;;;;;;;7.55;1.98;;;16.60;99.90;;;;;;10442373;28;20234;-88
2023/09/03 20:19:58;;;;;;;3.67;2.70;;;16.70;99.90;;;;;;10475752;28;20203;-88
2023/09/03 20:25:01;;;;;;;2.22;2.00;;;16.70;99.90;;;;;;10455250;28;20309;-88
2023/09/03 20:30:05;;;;;;;3.55;2.15;;;16.80;99.90;;;;;;10445207;28;20245;-88
2023/09/03 20:35:08;;;;;;;3.72;1.95;;;16.80;99.90;;;;;;10449254;28;20226;-88
2023/09/03 20:40:11;;;;;;;5.88;2.13;;;16.80;99.90;;;;;;10450569;28;20282;-88
2023/09/03 20:45:21;;;;;;;4.10;2.00;;;16.90;99.90;;;;;;10469919;28;20245;-88
2023/09/03 20:50:24;;;;;;;3.63;2.00;;;17.00;99.90;;;;;;10464223;28;20307;-88
2023/09/03 20:55:27;;;;;;;2.50;1.60;;;17.00;99.90;;;;;;10465869;28;20219;-88
2023/09/03 21:00:30;;;;;;;3.03;2.13;;;17.10;99.90;;;;;;10455675;28;20581;-87
2023/09/03 21:05:34;;;;;;;4.63;2.55;;;17.10;99.90;;;;;;10455658;28;20243;-87
2023/09/03 21:10:37;;;;;;;2.90;1.88;;;17.20;99.90;;;;;;10458046;28;20735;-87
2023/09/03 21:15:40;;;;;;;7.07;2.70;;;17.10;99.90;;;;;;10456267;28;20275;-87
2023/09/03 21:20:42;;;;;;;4.15;1.80;;;17.00;99.90;;;;;;10456127;28;20227;-88
2023/09/03 21:25:45;;;;;;;3.67;3.10;;;16.80;99.90;;;;;;10455636;28;20707;-87
2023/09/03 21:30:47;;;;;;;6.10;2.50;;;16.80;99.90;;;;;;10456841;28;20199;-88
2023/09/03 21:36:00;;;;;;;3.35;2.00;;;16.70;99.90;;;;;;10457781;28;20195;-86
2023/09/03 21:41:16;;;;;;;3.42;2.17;;;16.80;99.90;;;;;;10456235;28;20234;-86
2023/09/03 21:46:18;;;;;;;2.55;2.10;;;16.90;99.90;;;;;;10445312;28;20251;-87
2023/09/03 21:51:21;;;;;;;1.75;1.60;;;16.90;99.90;;;;;;10453773;28;20604;-87
2023/09/03 21:56:24;;;;;;;3.33;2.42;;;17.00;99.90;;;;;;10455646;28;20231;-87
2023/09/03 22:01:31;;;;;;;1.67;1.38;;;17.20;99.90;;;;;;10458284;28;20238;-87
2023/09/03 22:06:33;;;;;;;4.35;2.05;;;17.30;99.90;;;;;;10448245;28;20255;-87
2023/09/03 22:11:36;;;;;;;3.50;2.38;;;17.40;99.90;;;;;;10463128;28;20262;-86
2023/09/03 22:16:38;;;;;;;6.65;3.10;;;17.50;99.90;;;;;;10452043;28;20261;-86
2023/09/03 22:21:41;;;;;;;3.47;2.40;;;17.50;99.90;;;;;;10454495;28;20269;-86
2023/09/03 22:26:44;;;;;;;3.40;2.72;;;17.50;99.90;;;;;;10491169;28;20275;-85
2023/09/03 22:31:47;;;;;;;3.13;2.35;;;17.50;99.90;;;;;;10495436;28;20283;-87
2023/09/03 22:36:49;;;;;;;4.85;3.33;;;17.50;99.90;;;;;;10454184;28;20664;-86
2023/09/03 22:41:53;;;;;;;2.65;2.20;;;17.40;99.90;;;;;;10413666;28;20235;-87
2023/09/03 22:46:56;;;;;;;7.15;4.03;;;17.40;99.90;;;;;;10412564;28;20281;-86
2023/09/03 22:51:58;;;;;;;4.88;2.90;;;17.40;99.90;;;;;;10411633;28;20285;-86
2023/09/03 22:57:01;;;;;;;4.28;2.22;;;17.50;99.90;;;;;;10412249;28;20309;-86
2023/09/03 23:02:04;;;;;;;5.72;3.15;;;17.40;99.90;;;;;;10428832;28;20615;-86
2023/09/03 23:07:07;;;;;;;4.57;2.58;;;17.30;99.90;;;;;;10450759;28;20246;-86
2023/09/03 23:12:09;;;;;;;2.65;2.00;;;17.30;99.90;;;;;;10428432;28;20230;-87
2023/09/03 23:17:12;;;;;;;3.45;2.22;;;17.30;99.90;;;;;;10449960;28;20234;-86
2023/09/03 23:22:15;;;;;;;2.85;2.15;;;17.20;99.90;;;;;;10451871;28;20280;-86
2023/09/03 23:27:18;;;;;;;4.10;2.38;;;17.20;99.90;;;;;;10451275;28;20269;-86
2023/09/03 23:32:21;;;;;;;9.27;2.60;;;17.20;99.90;;;;;;10450790;28;20230;-86
2023/09/03 23:37:24;;;;;;;3.28;2.30;;;17.20;99.90;;;;;;10445814;28;20669;-86
2023/09/03 23:42:27;;;;;;;2.40;1.75;;;17.10;99.90;;;;;;10425014;28;20678;-86
2023/09/03 23:47:29;;;;;;;4.28;2.35;;;17.20;99.90;;;;;;10409598;28;20259;-86
2023/09/03 23:52:32;;;;;;;6.30;2.28;;;17.20;99.90;;;;;;10416731;28;20288;-86
2023/09/03 23:57:34;;;;;;;3.53;1.92;;;17.20;99.90;;;;;;10448715;28;20589;-86
